createdAt,value
2023-08-11T00:00:15.490Z,13.66
2023-08-11T00:00:46.405Z,13.68
2023-08-11T00:01:17.364Z,13.68
2023-08-11T00:01:48.266Z,13.68
2023-08-11T00:02:17.891Z,13.68
2023-08-11T00:02:48.498Z,13.71
2023-08-11T00:03:19.986Z,13.71
2023-08-11T00:03:50.956Z,13.71
2023-08-11T00:04:21.414Z,13.71
2023-08-11T00:04:52.335Z,13.71
2023-08-11T00:05:23.299Z,13.71
2023-08-11T00:05:54.205Z,13.69
2023-08-11T00:06:23.816Z,13.73
2023-08-11T00:06:54.440Z,13.72
2023-08-11T00:07:26.398Z,13.72
2023-08-11T00:07:57.312Z,13.71
2023-08-11T00:08:28.243Z,13.69
2023-08-11T00:08:57.842Z,13.68
2023-08-11T00:09:28.362Z,13.68
2023-08-11T00:09:59.071Z,13.66
2023-08-11T00:10:31.001Z,13.65
2023-08-11T00:11:01.912Z,13.66
2023-08-11T00:11:32.714Z,13.63
2023-08-11T00:12:03.660Z,13.62
2023-08-11T00:12:34.614Z,13.63
2023-08-11T00:13:05.523Z,13.63
2023-08-11T00:13:35.155Z,13.61
2023-08-11T00:14:07.079Z,13.57
2023-08-11T00:14:37.994Z,13.55
2023-08-11T00:15:08.799Z,13.51
2023-08-11T00:15:39.714Z,13.48
2023-08-11T00:16:10.671Z,13.48
2023-08-11T00:16:41.573Z,13.48
2023-08-11T00:17:12.476Z,13.50
2023-08-11T00:17:43.453Z,13.48
2023-08-11T00:18:13.084Z,13.46
2023-08-11T00:18:43.687Z,13.47
2023-08-11T00:19:15.645Z,13.47
2023-08-11T00:19:46.525Z,13.47
2023-08-11T00:20:17.419Z,13.50
2023-08-11T00:20:47.106Z,13.51
2023-08-11T00:21:17.739Z,13.53
2023-08-11T00:21:48.367Z,13.51
2023-08-11T00:22:20.287Z,13.51
2023-08-11T00:22:51.186Z,13.50
2023-08-11T00:23:22.100Z,13.51
2023-08-11T00:23:52.989Z,13.51
2023-08-11T00:24:23.927Z,13.51
2023-08-11T00:24:54.728Z,13.51
2023-08-11T00:25:24.331Z,13.50
2023-08-11T00:25:54.858Z,13.51
2023-08-11T00:26:26.782Z,13.53
2023-08-11T00:26:56.283Z,13.50
2023-08-11T00:27:28.212Z,13.48
2023-08-11T00:27:59.162Z,13.48
2023-08-11T00:28:28.765Z,13.47
2023-08-11T00:29:00.580Z,13.46
2023-08-11T00:29:31.505Z,13.43
2023-08-11T00:30:02.537Z,13.44
2023-08-11T00:30:32.181Z,13.43
2023-08-11T00:31:04.035Z,13.41
2023-08-11T00:31:33.716Z,13.36
2023-08-11T00:32:04.273Z,13.32
2023-08-11T00:32:36.220Z,13.29
2023-08-11T00:33:07.214Z,13.28
2023-08-11T00:33:36.864Z,13.25
2023-08-11T00:34:08.813Z,13.27
2023-08-11T00:34:39.613Z,13.27
2023-08-11T00:35:10.607Z,13.28
2023-08-11T00:35:40.177Z,13.28
2023-08-11T00:36:12.149Z,13.28
2023-08-11T00:36:41.769Z,13.29
2023-08-11T00:37:13.675Z,13.28
2023-08-11T00:37:44.609Z,13.29
2023-08-11T00:38:15.553Z,13.29
2023-08-11T00:38:46.471Z,13.31
2023-08-11T00:39:17.398Z,13.31
2023-08-11T00:39:46.977Z,13.35
2023-08-11T00:40:18.901Z,13.36
2023-08-11T00:40:49.842Z,13.38
2023-08-11T00:41:20.665Z,13.36
2023-08-11T00:41:50.280Z,13.36
2023-08-11T00:42:22.197Z,13.35
2023-08-11T00:42:51.735Z,13.28
2023-08-11T00:43:23.555Z,13.27
2023-08-11T00:43:54.496Z,13.22
2023-08-11T00:44:25.399Z,13.19
2023-08-11T00:44:56.311Z,13.19
2023-08-11T00:45:25.993Z,13.19
2023-08-11T00:45:57.986Z,13.19
2023-08-11T00:46:28.722Z,13.17
2023-08-11T00:46:59.647Z,13.19
2023-08-11T00:47:30.579Z,13.21
2023-08-11T00:48:01.532Z,13.21
2023-08-11T00:48:32.454Z,13.21
2023-08-11T00:49:03.276Z,13.21
2023-08-11T00:49:34.121Z,13.22
2023-08-11T00:50:05.018Z,13.24
2023-08-11T00:50:35.909Z,13.22
2023-08-11T00:51:06.844Z,13.24
2023-08-11T00:51:37.786Z,13.24
2023-08-11T00:52:07.331Z,13.25
2023-08-11T00:52:39.260Z,13.25
2023-08-11T00:53:08.952Z,13.27
2023-08-11T00:53:40.590Z,13.28
2023-08-11T00:54:10.121Z,13.25
2023-08-11T00:54:42.035Z,13.24
2023-08-11T00:55:12.958Z,13.24
2023-08-11T00:55:43.762Z,13.22
2023-08-11T00:56:14.692Z,13.24
2023-08-11T00:56:45.602Z,13.22
2023-08-11T00:57:16.523Z,13.22
2023-08-11T00:57:47.327Z,13.24
2023-08-11T00:58:18.272Z,13.25
2023-08-11T00:58:49.177Z,13.27
2023-08-11T00:59:20.085Z,13.28
2023-08-11T00:59:49.713Z,13.29
2023-08-11T01:00:21.663Z,13.29
2023-08-11T01:00:51.253Z,13.28
2023-08-11T01:01:23.206Z,13.28
2023-08-11T01:01:54.125Z,13.29
2023-08-11T01:02:25.092Z,13.29
2023-08-11T01:02:56.115Z,13.28
2023-08-11T01:03:25.618Z,13.27
2023-08-11T01:03:57.035Z,13.27
2023-08-11T01:04:27.860Z,13.28
2023-08-11T01:04:58.774Z,13.25
2023-08-11T01:05:31.936Z,13.25
2023-08-11T01:05:59.526Z,13.25
2023-08-11T01:06:30.151Z,13.25
2023-08-11T01:07:02.110Z,13.24
2023-08-11T01:07:33.020Z,13.25
2023-08-11T01:08:03.822Z,13.22
2023-08-11T01:08:34.740Z,13.22
2023-08-11T01:09:04.241Z,13.22
2023-08-11T01:09:37.292Z,13.19
2023-08-11T01:10:05.801Z,13.17
2023-08-11T01:10:37.731Z,13.16
2023-08-11T01:11:08.681Z,13.21
2023-08-11T01:11:39.607Z,13.19
2023-08-11T01:12:10.542Z,13.22
2023-08-11T01:12:41.471Z,13.21
2023-08-11T01:13:12.380Z,13.16
2023-08-11T01:13:43.277Z,13.16
2023-08-11T01:14:12.883Z,13.16
2023-08-11T01:14:44.692Z,13.16
2023-08-11T01:15:14.231Z,13.14
2023-08-11T01:15:46.187Z,13.13
2023-08-11T01:16:19.307Z,13.12
2023-08-11T01:16:47.944Z,13.10
2023-08-11T01:17:18.866Z,13.07
2023-08-11T01:17:49.824Z,13.06
2023-08-11T01:18:20.749Z,13.04
2023-08-11T01:18:51.674Z,13.03
2023-08-11T01:19:22.590Z,13.04
2023-08-11T01:19:52.193Z,12.99
2023-08-11T01:20:23.810Z,12.96
2023-08-11T01:20:54.728Z,12.92
2023-08-11T01:21:25.631Z,12.89
2023-08-11T01:21:56.581Z,12.88
2023-08-11T01:22:27.504Z,12.81
2023-08-11T01:22:58.289Z,12.80
2023-08-11T01:23:29.122Z,12.79
2023-08-11T01:24:00.026Z,12.77
2023-08-11T01:24:29.640Z,12.77
2023-08-11T01:25:00.205Z,12.77
2023-08-11T01:25:32.116Z,12.77
2023-08-11T01:26:02.902Z,12.76
2023-08-11T01:26:33.834Z,12.77
2023-08-11T01:27:04.681Z,12.80
2023-08-11T01:27:35.589Z,12.80
2023-08-11T01:28:06.523Z,12.84
2023-08-11T01:28:36.146Z,12.84
2023-08-11T01:29:08.057Z,12.84
2023-08-11T01:29:37.566Z,12.85
2023-08-11T01:30:09.544Z,12.88
2023-08-11T01:30:40.483Z,12.87
2023-08-11T01:31:11.537Z,12.87
2023-08-11T01:31:42.255Z,12.81
2023-08-11T01:32:13.199Z,12.80
2023-08-11T01:32:44.164Z,12.80
2023-08-11T01:33:15.087Z,12.76
2023-08-11T01:33:44.775Z,12.71
2023-08-11T01:34:15.307Z,12.70
2023-08-11T01:34:47.257Z,12.69
2023-08-11T01:35:33.644Z,12.66
2023-08-11T01:35:48.889Z,12.63
2023-08-11T01:36:18.405Z,12.63
2023-08-11T01:36:50.340Z,12.62
2023-08-11T01:37:20.240Z,12.61
2023-08-11T01:37:52.172Z,12.61
2023-08-11T01:38:23.105Z,12.61
2023-08-11T01:38:52.720Z,12.61
2023-08-11T01:39:24.633Z,12.59
2023-08-11T01:39:54.180Z,12.58
2023-08-11T01:40:26.113Z,12.59
2023-08-11T01:40:57.024Z,12.59
2023-08-11T01:41:26.525Z,12.58
2023-08-11T01:41:58.348Z,12.56
2023-08-11T01:42:29.517Z,12.58
2023-08-11T01:43:00.159Z,12.59
2023-08-11T01:43:31.092Z,12.61
2023-08-11T01:44:02.052Z,12.61
2023-08-11T01:44:32.953Z,12.63
2023-08-11T01:45:02.465Z,12.63
2023-08-11T01:45:34.495Z,12.66
2023-08-11T01:46:04.938Z,12.69
2023-08-11T01:46:35.878Z,12.70
2023-08-11T01:47:05.728Z,12.71
2023-08-11T01:47:37.039Z,12.71
2023-08-11T01:48:08.009Z,12.71
2023-08-11T01:48:39.000Z,12.73
2023-08-11T01:49:09.969Z,12.74
2023-08-11T01:49:40.885Z,12.73
2023-08-11T01:50:11.706Z,12.73
2023-08-11T01:50:42.601Z,12.71
2023-08-11T01:51:13.509Z,12.74
2023-08-11T01:51:44.432Z,12.76
2023-08-11T01:52:13.963Z,12.77
2023-08-11T01:52:45.895Z,12.77
2023-08-11T01:53:16.862Z,12.80
2023-08-11T01:53:47.760Z,12.79
2023-08-11T01:54:18.692Z,12.77
2023-08-11T01:54:49.612Z,12.77
2023-08-11T01:55:20.533Z,12.74
2023-08-11T01:55:51.347Z,12.74
2023-08-11T01:56:22.252Z,12.73
2023-08-11T01:56:53.188Z,12.71
2023-08-11T01:57:23.991Z,12.69
2023-08-11T01:57:59.105Z,12.69
2023-08-11T01:58:25.606Z,12.69
2023-08-11T01:58:55.610Z,12.67
2023-08-11T01:59:27.564Z,12.66
2023-08-11T01:59:58.504Z,12.62
2023-08-11T02:00:29.705Z,12.61
2023-08-11T02:00:59.821Z,12.58
2023-08-11T02:01:30.764Z,12.59
2023-08-11T02:02:00.490Z,12.59
2023-08-11T02:02:31.110Z,12.62
2023-08-11T02:03:02.599Z,12.62
2023-08-11T02:03:33.667Z,12.63
2023-08-11T02:04:04.180Z,12.66
2023-08-11T02:04:33.759Z,12.67
2023-08-11T02:05:05.660Z,12.69
2023-08-11T02:05:36.584Z,12.69
2023-08-11T02:06:06.196Z,12.69
2023-08-11T02:06:38.156Z,12.70
2023-08-11T02:07:09.299Z,12.69
2023-08-11T02:07:39.842Z,12.69
2023-08-11T02:08:10.699Z,12.69
2023-08-11T02:08:41.534Z,12.70
2023-08-11T02:09:12.462Z,12.70
2023-08-11T02:09:42.073Z,12.70
2023-08-11T02:10:12.594Z,12.70
2023-08-11T02:10:44.500Z,12.70
2023-08-11T02:11:14.089Z,12.73
2023-08-11T02:11:46.004Z,12.73
2023-08-11T02:12:16.922Z,12.74
2023-08-11T02:12:47.831Z,12.74
2023-08-11T02:13:18.794Z,12.74
2023-08-11T02:13:49.700Z,12.74
2023-08-11T02:14:19.307Z,12.73
2023-08-11T02:14:51.212Z,12.73
2023-08-11T02:15:20.753Z,12.67
2023-08-11T02:15:52.744Z,12.66
2023-08-11T02:16:23.714Z,12.62
2023-08-11T02:16:53.249Z,12.62
2023-08-11T02:17:25.196Z,12.59
2023-08-11T02:17:56.165Z,12.61
2023-08-11T02:18:27.076Z,12.61
2023-08-11T02:18:57.972Z,12.59
2023-08-11T02:19:28.897Z,12.59
2023-08-11T02:19:58.402Z,12.59
2023-08-11T02:20:30.338Z,12.61
2023-08-11T02:21:01.250Z,12.59
2023-08-11T02:21:32.187Z,12.59
2023-08-11T02:22:03.120Z,12.59
2023-08-11T02:22:34.032Z,12.61
2023-08-11T02:23:04.953Z,12.62
2023-08-11T02:23:35.860Z,12.61
2023-08-11T02:24:06.804Z,12.61
2023-08-11T02:24:36.323Z,12.63
2023-08-11T02:25:08.240Z,12.63
2023-08-11T02:25:39.189Z,12.63
2023-08-11T02:26:10.124Z,12.66
2023-08-11T02:26:39.773Z,12.66
2023-08-11T02:27:11.705Z,12.67
2023-08-11T02:27:42.626Z,12.69
2023-08-11T02:28:13.539Z,12.70
2023-08-11T02:28:44.455Z,12.70
2023-08-11T02:29:15.389Z,12.70
2023-08-11T02:29:46.304Z,12.70
2023-08-11T02:30:17.231Z,12.67
2023-08-11T02:30:48.172Z,12.67
2023-08-11T02:31:19.018Z,12.66
2023-08-11T02:31:49.995Z,12.67
2023-08-11T02:32:19.552Z,12.66
2023-08-11T02:32:51.646Z,12.67
2023-08-11T02:33:20.974Z,12.67
2023-08-11T02:33:51.509Z,12.67
2023-08-11T02:34:23.426Z,12.69
2023-08-11T02:34:53.015Z,12.66
2023-08-11T02:35:24.925Z,12.67
2023-08-11T02:35:55.853Z,12.66
2023-08-11T02:36:25.453Z,12.63
2023-08-11T02:36:55.976Z,12.61
2023-08-11T02:37:26.592Z,12.59
2023-08-11T02:37:58.542Z,12.59
2023-08-11T02:38:28.164Z,12.58
2023-08-11T02:39:00.055Z,12.59
2023-08-11T02:39:30.999Z,12.58
2023-08-11T02:40:01.936Z,12.58
2023-08-11T02:40:32.887Z,12.58
2023-08-11T02:41:04.840Z,12.55
2023-08-11T02:41:34.533Z,12.52
2023-08-11T02:42:05.968Z,12.54
2023-08-11T02:42:36.119Z,12.54
2023-08-11T02:43:07.045Z,12.54
2023-08-11T02:43:38.082Z,12.52
2023-08-11T02:44:08.773Z,12.52
2023-08-11T02:44:39.587Z,12.51
2023-08-11T02:45:10.711Z,12.52
2023-08-11T02:45:41.188Z,12.52
2023-08-11T02:46:12.185Z,12.55
2023-08-11T02:46:42.640Z,12.55
2023-08-11T02:47:13.562Z,12.56
2023-08-11T02:47:43.244Z,12.56
2023-08-11T02:48:14.812Z,12.58
2023-08-11T02:48:45.741Z,12.58
2023-08-11T02:49:16.657Z,12.59
2023-08-11T02:49:47.591Z,12.61
2023-08-11T02:50:18.559Z,12.62
2023-08-11T02:50:49.329Z,12.62
2023-08-11T02:51:20.132Z,12.62
2023-08-11T02:51:51.080Z,12.66
2023-08-11T02:52:21.878Z,12.63
2023-08-11T02:52:52.818Z,12.66
2023-08-11T02:53:23.653Z,12.67
2023-08-11T02:53:53.006Z,12.63
2023-08-11T02:54:24.935Z,12.66
2023-08-11T02:54:55.848Z,12.66
2023-08-11T02:55:26.638Z,12.67
2023-08-11T02:55:57.586Z,12.69
2023-08-11T02:56:28.503Z,12.69
2023-08-11T02:56:59.468Z,12.69
2023-08-11T02:57:30.384Z,12.69
2023-08-11T02:58:01.312Z,12.67
2023-08-11T02:58:32.284Z,12.66
2023-08-11T02:59:03.207Z,12.69
2023-08-11T02:59:34.125Z,12.69
2023-08-11T03:00:05.064Z,12.66
2023-08-11T03:00:34.690Z,12.67
2023-08-11T03:01:06.642Z,12.67
2023-08-11T03:01:36.281Z,12.66
2023-08-11T03:02:07.227Z,12.66
2023-08-11T03:02:38.938Z,12.69
2023-08-11T03:03:08.778Z,12.66
2023-08-11T03:03:40.297Z,12.67
2023-08-11T03:04:11.211Z,12.69
2023-08-11T03:04:42.114Z,12.67
2023-08-11T03:05:13.175Z,12.69
2023-08-11T03:05:43.599Z,12.70
2023-08-11T03:06:14.514Z,12.69
2023-08-11T03:06:45.441Z,12.70
2023-08-11T03:07:16.366Z,12.69
2023-08-11T03:07:47.295Z,12.67
2023-08-11T03:08:16.909Z,12.66
2023-08-11T03:08:47.459Z,12.66
2023-08-11T03:09:19.373Z,12.63
2023-08-11T03:09:50.284Z,12.62
2023-08-11T03:10:19.923Z,12.61
2023-08-11T03:10:57.035Z,12.58
2023-08-11T03:11:22.636Z,12.58
2023-08-11T03:11:52.240Z,12.56
2023-08-11T03:12:22.855Z,12.56
2023-08-11T03:12:54.777Z,12.54
2023-08-11T03:13:25.688Z,12.54
2023-08-11T03:13:56.600Z,12.54
2023-08-11T03:14:26.135Z,12.52
2023-08-11T03:14:58.052Z,12.49
2023-08-11T03:15:27.709Z,12.48
2023-08-11T03:15:59.640Z,12.46
2023-08-11T03:16:30.575Z,12.48
2023-08-11T03:17:01.465Z,12.48
2023-08-11T03:17:31.039Z,12.46
2023-08-11T03:18:03.020Z,12.44
2023-08-11T03:18:32.690Z,12.44
2023-08-11T03:19:04.620Z,12.43
2023-08-11T03:19:35.544Z,12.41
2023-08-11T03:20:05.162Z,12.40
2023-08-11T03:20:35.752Z,12.36
2023-08-11T03:21:18.672Z,12.34
2023-08-11T03:21:38.477Z,12.34
2023-08-11T03:22:09.431Z,12.33
2023-08-11T03:22:39.185Z,12.31
2023-08-11T03:23:09.891Z,12.31
2023-08-11T03:23:41.834Z,12.29
2023-08-11T03:24:14.643Z,12.29
2023-08-11T03:24:43.736Z,12.25
2023-08-11T03:25:14.655Z,12.25
2023-08-11T03:25:45.610Z,12.23
2023-08-11T03:26:16.514Z,12.25
2023-08-11T03:26:47.451Z,12.23
2023-08-11T03:27:17.075Z,12.22
2023-08-11T03:27:49.051Z,12.23
2023-08-11T03:28:19.985Z,12.25
2023-08-11T03:28:50.797Z,12.25
2023-08-11T03:29:21.759Z,12.26
2023-08-11T03:29:51.372Z,12.30
2023-08-11T03:30:21.993Z,12.30
2023-08-11T03:30:53.958Z,12.33
2023-08-11T03:31:24.862Z,12.33
2023-08-11T03:31:55.707Z,12.33
2023-08-11T03:32:26.660Z,12.34
2023-08-11T03:32:56.311Z,12.34
2023-08-11T03:33:28.305Z,12.33
2023-08-11T03:33:59.013Z,12.34
2023-08-11T03:34:29.831Z,12.34
2023-08-11T03:35:00.768Z,12.34
2023-08-11T03:35:31.681Z,12.37
2023-08-11T03:36:01.351Z,12.37
2023-08-11T03:36:31.918Z,12.36
2023-08-11T03:37:03.793Z,12.37
2023-08-11T03:37:34.661Z,12.37
2023-08-11T03:38:05.549Z,12.37
2023-08-11T03:38:36.370Z,12.37
2023-08-11T03:39:07.310Z,12.38
2023-08-11T03:39:38.238Z,12.40
2023-08-11T03:40:07.846Z,12.40
2023-08-11T03:40:39.731Z,12.41
2023-08-11T03:41:09.296Z,12.40
2023-08-11T03:41:40.258Z,12.40
2023-08-11T03:42:14.268Z,12.40
2023-08-11T03:42:42.892Z,12.38
2023-08-11T03:43:13.778Z,12.40
2023-08-11T03:43:44.682Z,12.40
2023-08-11T03:44:15.609Z,12.41
2023-08-11T03:44:46.489Z,12.41
2023-08-11T03:45:17.362Z,12.38
2023-08-11T03:45:48.247Z,12.38
2023-08-11T03:46:19.176Z,12.40
2023-08-11T03:46:48.795Z,12.38
2023-08-11T03:47:20.680Z,12.37
2023-08-11T03:47:50.291Z,12.36
2023-08-11T03:48:22.166Z,12.37
2023-08-11T03:48:51.739Z,12.37
2023-08-11T03:49:23.591Z,12.37
2023-08-11T03:49:54.467Z,12.38
2023-08-11T03:50:25.348Z,12.38
2023-08-11T03:50:56.217Z,12.38
2023-08-11T03:51:27.104Z,12.40
2023-08-11T03:52:00.074Z,12.40
2023-08-11T03:52:28.601Z,12.40
2023-08-11T03:52:59.446Z,12.40
2023-08-11T03:53:30.315Z,12.41
2023-08-11T03:54:02.183Z,12.41
2023-08-11T03:54:43.486Z,12.40
2023-08-11T03:55:02.511Z,12.41
2023-08-11T03:55:33.392Z,12.43
2023-08-11T03:56:04.267Z,12.41
2023-08-11T03:56:35.162Z,12.43
2023-08-11T03:57:06.022Z,12.43
2023-08-11T03:57:36.935Z,12.41
2023-08-11T03:58:07.789Z,12.43
2023-08-11T03:58:38.660Z,12.43
2023-08-11T03:59:09.521Z,12.41
2023-08-11T03:59:40.398Z,12.40
2023-08-11T04:00:11.259Z,12.41
2023-08-11T04:00:42.147Z,12.41
2023-08-11T04:01:13.101Z,12.40
2023-08-11T04:01:42.730Z,12.41
2023-08-11T04:02:14.648Z,12.40
2023-08-11T04:02:44.354Z,12.41
2023-08-11T04:03:16.127Z,12.40
2023-08-11T04:03:46.687Z,12.40
2023-08-11T04:04:17.551Z,12.38
2023-08-11T04:04:48.405Z,12.40
2023-08-11T04:05:19.274Z,12.37
2023-08-11T04:05:52.202Z,12.37
2023-08-11T04:06:20.029Z,12.36
2023-08-11T04:06:51.869Z,12.36
2023-08-11T04:07:22.733Z,12.33
2023-08-11T04:07:53.580Z,12.34
2023-08-11T04:08:24.419Z,12.33
2023-08-11T04:08:53.964Z,12.34
2023-08-11T04:09:25.839Z,12.34
2023-08-11T04:09:57.556Z,12.34
2023-08-11T04:10:27.119Z,12.36
2023-08-11T04:10:57.973Z,12.34
2023-08-11T04:11:28.837Z,12.33
2023-08-11T04:11:59.765Z,12.31
2023-08-11T04:12:30.618Z,12.29
2023-08-11T04:13:01.484Z,12.25
2023-08-11T04:13:32.350Z,12.21
2023-08-11T04:14:03.112Z,12.18
2023-08-11T04:14:33.887Z,12.15
2023-08-11T04:15:04.759Z,12.12
2023-08-11T04:15:35.644Z,12.08
2023-08-11T04:16:06.484Z,12.03
2023-08-11T04:16:37.349Z,12.01
2023-08-11T04:17:08.217Z,11.97
2023-08-11T04:17:39.124Z,11.90
2023-08-11T04:18:08.785Z,11.88
2023-08-11T04:18:40.647Z,11.85
2023-08-11T04:19:11.497Z,11.84
2023-08-11T04:19:42.378Z,11.85
2023-08-11T04:20:13.293Z,11.84
2023-08-11T04:20:42.840Z,11.84
2023-08-11T04:21:14.697Z,11.87
2023-08-11T04:21:45.533Z,11.88
2023-08-11T04:22:22.794Z,11.88
2023-08-11T04:22:47.156Z,11.93
2023-08-11T04:23:18.014Z,11.93
2023-08-11T04:23:47.558Z,11.94
2023-08-11T04:24:19.424Z,11.97
2023-08-11T04:24:50.271Z,11.98
2023-08-11T04:25:20.216Z,12.00
2023-08-11T04:25:52.142Z,12.03
2023-08-11T04:26:22.976Z,12.04
2023-08-11T04:26:52.923Z,12.04
2023-08-11T04:27:24.853Z,12.08
2023-08-11T04:27:55.688Z,12.08
2023-08-11T04:28:26.564Z,12.08
2023-08-11T04:28:57.403Z,12.08
2023-08-11T04:29:28.280Z,12.07
2023-08-11T04:29:59.177Z,12.03
2023-08-11T04:30:28.729Z,12.01
2023-08-11T04:30:59.327Z,12.00
2023-08-11T04:31:31.236Z,12.00
2023-08-11T04:32:00.736Z,11.98
2023-08-11T04:32:32.631Z,11.97
2023-08-11T04:33:03.664Z,11.97
2023-08-11T04:33:34.092Z,11.98
2023-08-11T04:34:04.933Z,11.98
2023-08-11T04:34:35.684Z,12.00
2023-08-11T04:35:06.530Z,12.01
2023-08-11T04:35:37.377Z,12.03
2023-08-11T04:36:06.940Z,12.07
2023-08-11T04:36:38.813Z,12.05
2023-08-11T04:37:09.670Z,12.08
2023-08-11T04:37:40.735Z,12.11
2023-08-11T04:38:11.101Z,12.12
2023-08-11T04:38:40.701Z,12.13
2023-08-11T04:39:11.286Z,12.15
2023-08-11T04:39:43.174Z,12.16
2023-08-11T04:40:13.927Z,12.16
2023-08-11T04:40:43.886Z,12.19
2023-08-11T04:41:14.450Z,12.21
2023-08-11T04:41:45.027Z,12.21
2023-08-11T04:42:16.891Z,12.23
2023-08-11T04:42:47.577Z,12.26
2023-08-11T04:43:18.325Z,12.23
2023-08-11T04:43:49.160Z,12.26
2023-08-11T04:44:20.015Z,12.29
2023-08-11T04:44:50.861Z,12.30
2023-08-11T04:45:21.730Z,12.31
2023-08-11T04:45:52.581Z,12.31
2023-08-11T04:46:23.468Z,12.30
2023-08-11T04:46:54.370Z,12.34
2023-08-11T04:47:25.132Z,12.34
2023-08-11T04:47:56.021Z,12.36
2023-08-11T04:48:26.857Z,12.33
2023-08-11T04:48:57.712Z,12.36
2023-08-11T04:49:28.454Z,12.34
2023-08-11T04:49:59.285Z,12.34
2023-08-11T04:50:28.836Z,12.36
2023-08-11T04:51:00.715Z,12.34
2023-08-11T04:51:31.550Z,12.34
2023-08-11T04:52:02.403Z,12.33
2023-08-11T04:52:33.154Z,12.36
2023-08-11T04:53:04.067Z,12.36
2023-08-11T04:53:34.955Z,12.36
2023-08-11T04:54:04.932Z,12.36
2023-08-11T04:54:36.792Z,12.36
2023-08-11T04:55:07.553Z,12.37
2023-08-11T04:55:38.467Z,12.37
2023-08-11T04:56:09.310Z,12.33
2023-08-11T04:56:40.162Z,12.30
2023-08-11T04:57:11.046Z,12.29
2023-08-11T04:57:41.905Z,12.29
2023-08-11T04:58:11.892Z,12.26
2023-08-11T04:58:43.749Z,12.23
2023-08-11T04:59:14.589Z,12.25
2023-08-11T04:59:45.486Z,12.25
2023-08-11T05:00:16.337Z,12.25
2023-08-11T05:00:47.220Z,12.23
2023-08-11T05:01:18.126Z,12.22
2023-08-11T05:01:49.004Z,12.23
2023-08-11T05:02:18.596Z,12.22
2023-08-11T05:02:50.522Z,12.21
2023-08-11T05:03:21.491Z,12.21
2023-08-11T05:03:51.227Z,12.21
2023-08-11T05:04:22.614Z,12.21
2023-08-11T05:04:53.353Z,12.19
2023-08-11T05:05:24.215Z,12.19
2023-08-11T05:05:55.115Z,12.21
2023-08-11T05:06:25.956Z,12.23
2023-08-11T05:06:56.706Z,12.25
2023-08-11T05:07:27.598Z,12.26
2023-08-11T05:07:58.434Z,12.29
2023-08-11T05:08:28.009Z,12.30
2023-08-11T05:08:59.860Z,12.31
2023-08-11T05:09:30.735Z,12.36
2023-08-11T05:10:01.616Z,12.36
2023-08-11T05:10:32.488Z,12.40
2023-08-11T05:11:03.367Z,12.40
2023-08-11T05:11:32.926Z,12.41
2023-08-11T05:12:03.489Z,12.44
2023-08-11T05:12:35.364Z,12.48
2023-08-11T05:13:06.245Z,12.49
2023-08-11T05:13:35.840Z,12.52
2023-08-11T05:14:07.740Z,12.56
2023-08-11T05:14:38.485Z,12.58
2023-08-11T05:15:09.350Z,12.58
2023-08-11T05:15:40.218Z,12.59
2023-08-11T05:16:11.083Z,12.59
2023-08-11T05:16:40.741Z,12.62
2023-08-11T05:17:13.013Z,12.62
2023-08-11T05:17:42.198Z,12.63
2023-08-11T05:18:14.077Z,12.63
2023-08-11T05:18:44.922Z,12.66
2023-08-11T05:19:15.779Z,12.67
2023-08-11T05:19:45.371Z,12.67
2023-08-11T05:20:17.236Z,12.69
2023-08-11T05:20:46.801Z,12.70
2023-08-11T05:21:17.770Z,12.69
2023-08-11T05:21:49.694Z,12.70
2023-08-11T05:22:20.533Z,12.71
2023-08-11T05:22:51.405Z,12.70
2023-08-11T05:23:23.928Z,12.73
2023-08-11T05:23:52.860Z,12.74
2023-08-11T05:24:23.746Z,12.74
2023-08-11T05:24:54.687Z,12.76
2023-08-11T05:25:24.226Z,12.76
2023-08-11T05:25:56.071Z,12.76
2023-08-11T05:26:25.631Z,12.79
2023-08-11T05:26:57.507Z,12.80
2023-08-11T05:27:28.406Z,12.81
2023-08-11T05:27:59.276Z,12.84
2023-08-11T05:28:30.153Z,12.87
2023-08-11T05:28:59.727Z,12.88
2023-08-11T05:29:31.578Z,12.88
2023-08-11T05:30:02.460Z,12.91
2023-08-11T05:30:33.204Z,12.91
2023-08-11T05:31:04.081Z,12.92
2023-08-11T05:31:33.659Z,12.94
2023-08-11T05:32:04.181Z,12.96
2023-08-11T05:32:36.121Z,12.95
2023-08-11T05:33:07.013Z,12.98
2023-08-11T05:33:37.903Z,12.98
2023-08-11T05:34:08.763Z,13.01
2023-08-11T05:34:38.305Z,12.99
2023-08-11T05:35:08.899Z,13.01
2023-08-11T05:35:40.769Z,13.03
2023-08-11T05:36:11.631Z,13.06
2023-08-11T05:36:41.231Z,13.06
2023-08-11T05:37:12.039Z,13.07
2023-08-11T05:37:42.779Z,13.09
2023-08-11T05:38:13.368Z,13.10
2023-08-11T05:38:45.229Z,13.10
2023-08-11T05:39:16.014Z,13.13
2023-08-11T05:39:46.856Z,13.14
2023-08-11T05:40:16.441Z,13.16
2023-08-11T05:40:48.328Z,13.19
2023-08-11T05:41:19.241Z,13.17
2023-08-11T05:41:50.113Z,13.17
2023-08-11T05:42:20.959Z,13.19
2023-08-11T05:42:51.798Z,13.22
2023-08-11T05:43:21.347Z,13.24
2023-08-11T05:43:52.336Z,13.24
2023-08-11T05:44:24.228Z,13.27
2023-08-11T05:44:53.708Z,13.28
2023-08-11T05:45:25.586Z,13.27
2023-08-11T05:45:56.481Z,13.28
2023-08-11T05:46:26.109Z,13.31
2023-08-11T05:46:58.036Z,13.32
2023-08-11T05:47:28.807Z,13.32
2023-08-11T05:47:59.720Z,13.35
2023-08-11T05:48:30.595Z,13.35
2023-08-11T05:49:01.352Z,13.36
2023-08-11T05:49:32.238Z,13.38
2023-08-11T05:50:01.788Z,13.39
2023-08-11T05:50:32.334Z,13.41
2023-08-11T05:51:03.132Z,13.43
2023-08-11T05:51:34.998Z,13.43
2023-08-11T05:52:05.764Z,13.44
2023-08-11T05:52:36.666Z,13.47
2023-08-11T05:53:07.502Z,13.46
2023-08-11T05:53:38.337Z,13.48
2023-08-11T05:54:07.903Z,13.48
2023-08-11T05:54:38.472Z,13.51
2023-08-11T05:55:10.346Z,13.53
2023-08-11T05:55:41.294Z,13.53
2023-08-11T05:56:11.722Z,13.54
2023-08-11T05:56:41.684Z,13.55
2023-08-11T05:57:13.540Z,13.55
2023-08-11T05:57:44.307Z,13.55
2023-08-11T05:58:15.233Z,13.59
2023-08-11T05:58:45.214Z,13.59
2023-08-11T05:59:17.081Z,13.61
2023-08-11T05:59:47.970Z,13.61
2023-08-11T06:00:18.812Z,13.62
2023-08-11T06:00:50.503Z,13.63
2023-08-11T06:01:20.428Z,13.63
2023-08-11T06:01:51.344Z,13.63
2023-08-11T06:02:22.276Z,13.66
2023-08-11T06:02:52.303Z,13.66
2023-08-11T06:03:24.199Z,13.68
2023-08-11T06:03:53.733Z,13.68
2023-08-11T06:04:25.654Z,13.72
2023-08-11T06:04:56.567Z,13.71
2023-08-11T06:05:27.441Z,13.72
2023-08-11T06:05:56.992Z,13.73
2023-08-11T06:06:28.758Z,13.75
2023-08-11T06:06:59.596Z,13.75
2023-08-11T06:07:30.442Z,13.79
2023-08-11T06:08:06.788Z,13.80
2023-08-11T06:08:32.091Z,13.80
2023-08-11T06:09:01.666Z,13.81
2023-08-11T06:09:33.552Z,13.83
2023-08-11T06:10:04.393Z,13.83
2023-08-11T06:10:33.956Z,13.86
2023-08-11T06:11:04.462Z,13.88
2023-08-11T06:11:36.315Z,13.87
2023-08-11T06:12:07.063Z,13.90
2023-08-11T06:12:37.932Z,13.90
2023-08-11T06:13:08.801Z,13.91
2023-08-11T06:13:39.684Z,13.93
2023-08-11T06:14:10.537Z,13.93
2023-08-11T06:14:41.290Z,13.94
2023-08-11T06:15:10.956Z,13.96
2023-08-11T06:15:42.835Z,13.96
2023-08-11T06:16:13.735Z,13.99
2023-08-11T06:16:43.240Z,13.99
2023-08-11T06:17:14.079Z,13.99
2023-08-11T06:17:44.803Z,14.01
2023-08-11T06:18:15.390Z,14.01
2023-08-11T06:18:47.251Z,14.04
2023-08-11T06:19:16.809Z,14.04
2023-08-11T06:19:48.675Z,14.05
2023-08-11T06:20:30.070Z,14.06
2023-08-11T06:20:50.287Z,14.06
2023-08-11T06:21:19.853Z,14.09
2023-08-11T06:21:50.415Z,14.11
2023-08-11T06:22:22.282Z,14.11
2023-08-11T06:22:53.132Z,14.11
2023-08-11T06:23:22.686Z,14.12
2023-08-11T06:23:53.287Z,14.16
2023-08-11T06:24:23.868Z,14.16
2023-08-11T06:24:55.747Z,14.16
2023-08-11T06:25:27.705Z,14.17
2023-08-11T06:25:57.394Z,14.17
2023-08-11T06:26:28.279Z,14.20
2023-08-11T06:26:59.141Z,14.21
2023-08-11T06:27:30.001Z,14.23
2023-08-11T06:28:00.839Z,14.23
2023-08-11T06:28:31.600Z,14.24
2023-08-11T06:29:02.464Z,14.26
2023-08-11T06:29:33.334Z,14.27
2023-08-11T06:30:04.270Z,14.26
2023-08-11T06:30:35.158Z,14.27
2023-08-11T06:31:06.146Z,14.30
2023-08-11T06:31:36.564Z,14.30
2023-08-11T06:32:07.474Z,14.31
2023-08-11T06:32:38.376Z,14.34
2023-08-11T06:33:09.151Z,14.35
2023-08-11T06:33:40.048Z,14.34
2023-08-11T06:34:10.945Z,14.36
2023-08-11T06:34:40.535Z,14.36
2023-08-11T06:35:12.390Z,14.38
2023-08-11T06:35:42.366Z,14.38
2023-08-11T06:36:14.224Z,14.39
2023-08-11T06:36:45.120Z,14.41